Time,TemperatureF,DewpointF,PressureIn,WindDirection,WindDirectionDegrees,WindSpeedMPH,WindSpeedGustMPH,Humidity,HourlyPrecipIn,Conditions,Clouds,dailyrainin,SoftwareType,DateUTC
2013-04-09 00:00:00,40.8,38.4,30.31,WSW,250,0.0,13.0,91,0.00,,,0.00,Wunderground v.1.15,2013-04-09 07:00:00,
2013-04-09 00:05:00,40.7,38.3,30.31,WSW,250,0.0,13.0,91,0.00,,,0.00,Wunderground v.1.15,2013-04-09 07:05:00,
2013-04-09 00:11:00,40.5,38.1,30.31,WSW,250,0.0,0.0,91,0.00,,,0.00,Wunderground v.1.15,2013-04-09 07:11:00,
2013-04-09 00:16:00,40.4,38.0,30.31,WSW,250,0.0,0.0,91,0.00,,,0.00,Wunderground v.1.15,2013-04-09 07:16:00,
2013-04-09 00:21:00,40.3,37.9,30.31,WSW,250,0.0,0.0,91,0.00,,,0.00,Wunderground v.1.15,2013-04-09 07:21:00,
2013-04-09 00:27:00,40.2,37.8,30.31,WSW,250,0.0,0.0,91,0.00,,,0.00,Wunderground v.1.15,2013-04-09 07:27:00,
2013-04-09 00:33:00,40.1,38.0,30.32,WSW,250,0.0,0.0,92,0.00,,,0.00,Wunderground v.1.15,2013-04-09 07:33:00,
2013-04-09 00:39:00,40.0,37.9,30.32,WSW,250,0.0,0.0,92,0.00,,,0.00,Wunderground v.1.15,2013-04-09 07:39:00,
2013-04-09 00:44:00,40.0,37.9,30.32,WSW,250,0.0,0.0,92,0.00,,,0.00,Wunderground v.1.15,2013-04-09 07:44:00,
2013-04-09 00:50:00,39.8,37.7,30.32,WSW,250,0.0,0.0,92,0.00,,,0.00,Wunderground v.1.15,2013-04-09 07:50:00,
2013-04-09 00:56:00,39.5,37.4,30.32,WSW,250,0.0,0.0,92,0.00,,,0.00,Wunderground v.1.15,2013-04-09 07:56:00,
2013-04-09 01:02:00,39.3,37.2,30.32,WSW,250,0.0,0.0,92,0.00,,,0.00,Wunderground v.1.15,2013-04-09 08:02:00,
2013-04-09 01:08:00,39.0,36.9,30.32,WSW,250,0.0,0.0,92,0.00,,,0.00,Wunderground v.1.15,2013-04-09 08:08:00,
2013-04-09 01:13:00,38.9,36.8,30.32,WSW,250,0.0,0.0,92,0.00,,,0.00,Wunderground v.1.15,2013-04-09 08:13:00,
2013-04-09 01:19:00,38.5,36.7,30.32,WSW,250,0.0,0.0,93,0.00,,,0.00,Wunderground v.1.15,2013-04-09 08:19:00,
2013-04-09 01:24:00,38.3,36.2,30.32,WSW,250,0.0,0.0,92,0.00,,,0.00,Wunderground v.1.15,2013-04-09 08:24:00,
2013-04-09 01:30:00,38.1,36.3,30.32,WSW,250,0.0,0.0,93,0.00,,,0.00,Wunderground v.1.15,2013-04-09 08:30:00,
2013-04-09 01:35:00,38.0,36.2,30.33,WSW,250,0.0,0.0,93,0.00,,,0.00,Wunderground v.1.15,2013-04-09 08:35:00,
2013-04-09 01:41:00,37.8,36.0,30.33,WSW,250,0.0,0.0,93,0.00,,,0.00,Wunderground v.1.15,2013-04-09 08:41:00,
2013-04-09 01:47:00,37.6,35.8,30.33,WSW,250,0.0,0.0,93,0.00,,,0.00,Wunderground v.1.15,2013-04-09 08:47:00,
2013-04-09 01:52:00,37.5,35.7,30.33,WSW,250,0.0,0.0,93,0.00,,,0.00,Wunderground v.1.15,2013-04-09 08:52:00,
2013-04-09 01:58:00,37.4,35.6,30.33,WSW,250,0.0,0.0,93,0.00,,,0.00,Wunderground v.1.15,2013-04-09 08:58:00,
2013-04-09 02:04:00,37.4,35.6,30.33,WSW,250,0.0,0.0,93,0.00,,,0.00,Wunderground v.1.15,2013-04-09 09:04:00,
2013-04-09 02:10:00,37.3,35.5,30.33,WSW,250,0.0,0.0,93,0.00,,,0.00,Wunderground v.1.15,2013-04-09 09:10:00,
2013-04-09 02:15:00,37.3,35.5,30.33,WSW,250,0.0,0.0,93,0.00,,,0.00,Wunderground v.1.15,2013-04-09 09:15:00,
2013-04-09 02:21:00,37.4,35.6,30.33,WSW,250,0.0,0.0,93,0.00,,,0.00,Wunderground v.1.15,2013-04-09 09:21:00,
2013-04-09 02:27:00,37.2,35.4,30.33,WSW,250,0.0,0.0,93,0.00,,,0.00,Wunderground v.1.15,2013-04-09 09:27:00,
2013-04-09 02:33:00,37.0,35.2,30.33,WSW,250,0.0,0.0,93,0.00,,,0.00,Wunderground v.1.15,2013-04-09 09:33:00,
2013-04-09 02:38:00,36.9,35.1,30.33,WSW,250,0.0,0.0,93,0.00,,,0.00,Wunderground v.1.15,2013-04-09 09:38:00,
2013-04-09 02:44:00,36.9,35.1,30.33,WSW,250,0.0,0.0,93,0.00,,,0.00,Wunderground v.1.15,2013-04-09 09:44:00,
2013-04-09 02:50:00,36.7,34.9,30.33,WSW,250,0.0,0.0,93,0.00,,,0.00,Wunderground v.1.15,2013-04-09 09:50:00,
2013-04-09 02:55:00,36.6,35.0,30.33,WSW,250,0.0,0.0,94,0.00,,,0.00,Wunderground v.1.15,2013-04-09 09:55:00,
2013-04-09 03:01:00,36.4,34.6,30.33,WSW,250,0.0,0.0,93,0.00,,,0.00,Wunderground v.1.15,2013-04-09 10:01:00,
2013-04-09 03:07:00,36.2,34.6,30.32,WSW,250,0.0,0.0,94,0.00,,,0.00,Wunderground v.1.15,2013-04-09 10:07:00,
2013-04-09 03:13:00,36.0,34.4,30.33,WSW,250,0.0,0.0,94,0.00,,,0.00,Wunderground v.1.15,2013-04-09 10:13:00,
2013-04-09 03:18:00,35.9,34.3,30.33,WSW,250,0.0,0.0,94,0.00,,,0.00,Wunderground v.1.15,2013-04-09 10:18:00,
2013-04-09 03:24:00,35.9,34.3,30.33,WSW,250,0.0,0.0,94,0.00,,,0.00,Wunderground v.1.15,2013-04-09 10:24:00,
2013-04-09 03:29:00,35.9,34.3,30.33,WSW,250,0.0,0.0,94,0.00,,,0.00,Wunderground v.1.15,2013-04-09 10:29:00,
2013-04-09 03:35:00,36.1,34.5,30.33,WSW,250,0.0,0.0,94,0.00,,,0.00,Wunderground v.1.15,2013-04-09 10:35:00,
2013-04-09 03:40:00,36.2,34.6,30.33,WSW,250,0.0,0.0,94,0.00,,,0.00,Wunderground v.1.15,2013-04-09 10:40:00,
2013-04-09 03:46:00,36.5,34.9,30.33,WSW,250,0.0,0.0,94,0.00,,,0.00,Wunderground v.1.15,2013-04-09 10:46:00,
2013-04-09 03:52:00,36.8,35.2,30.33,WSW,250,0.0,0.0,94,0.00,,,0.00,Wunderground v.1.15,2013-04-09 10:52:00,
2013-04-09 03:57:00,37.2,35.6,30.33,WSW,250,0.0,0.0,94,0.00,,,0.00,Wunderground v.1.15,2013-04-09 10:57:00,
2013-04-09 04:03:00,37.4,35.8,30.33,WSW,250,0.0,0.0,94,0.00,,,0.00,Wunderground v.1.15,2013-04-09 11:03:00,
2013-04-09 04:10:00,37.7,36.4,30.33,WSW,250,0.0,0.0,95,0.00,,,0.00,Wunderground v.1.15,2013-04-09 11:10:00,
2013-04-09 04:16:00,37.7,36.4,30.33,WSW,250,0.0,0.0,95,0.00,,,0.00,Wunderground v.1.15,2013-04-09 11:16:00,
2013-04-09 04:21:00,37.8,36.5,30.33,WSW,250,0.0,0.0,95,0.00,,,0.00,Wunderground v.1.15,2013-04-09 11:21:00,
2013-04-09 04:26:00,37.7,36.1,30.33,WSW,250,0.0,0.0,94,0.00,,,0.00,Wunderground v.1.15,2013-04-09 11:26:00,
2013-04-09 04:32:00,37.7,36.1,30.33,WSW,250,0.0,1.0,94,0.00,,,0.00,Wunderground v.1.15,2013-04-09 11:32:00,
2013-04-09 04:38:00,37.9,36.6,30.34,WSW,250,1.0,1.0,95,0.00,,,0.00,Wunderground v.1.15,2013-04-09 11:38:00,
2013-04-09 04:44:00,37.9,36.6,30.34,WSW,250,1.0,1.0,95,0.00,,,0.00,Wunderground v.1.15,2013-04-09 11:44:00,
2013-04-09 04:49:00,38.0,36.4,30.33,WSW,250,0.0,1.0,94,0.00,,,0.00,Wunderground v.1.15,2013-04-09 11:49:00,
2013-04-09 04:55:00,38.0,36.4,30.34,WSW,250,0.0,0.0,94,0.00,,,0.00,Wunderground v.1.15,2013-04-09 11:55:00,
2013-04-09 05:01:00,38.1,36.5,30.33,WSW,250,0.0,0.0,94,0.00,,,0.00,Wunderground v.1.15,2013-04-09 12:01:00,
2013-04-09 05:06:00,38.2,36.6,30.34,WSW,250,0.0,0.0,94,0.00,,,0.00,Wunderground v.1.15,2013-04-09 12:06:00,
2013-04-09 05:12:00,38.3,37.0,30.34,WSW,250,0.0,0.0,95,0.00,,,0.00,Wunderground v.1.15,2013-04-09 12:12:00,
2013-04-09 05:17:00,38.4,37.1,30.35,WSW,250,0.0,0.0,95,0.00,,,0.00,Wunderground v.1.15,2013-04-09 12:17:00,
2013-04-09 05:23:00,38.3,37.0,30.35,WSW,250,0.0,0.0,95,0.00,,,0.00,Wunderground v.1.15,2013-04-09 12:23:00,
2013-04-09 05:29:00,38.1,36.5,30.35,WSW,250,0.0,0.0,94,0.00,,,0.00,Wunderground v.1.15,2013-04-09 12:29:00,
2013-04-09 05:34:00,38.0,36.4,30.35,WSW,250,0.0,0.0,94,0.00,,,0.00,Wunderground v.1.15,2013-04-09 12:34:00,
2013-04-09 05:40:00,38.0,36.4,30.35,WSW,250,0.0,0.0,94,0.00,,,0.00,Wunderground v.1.15,2013-04-09 12:40:00,
2013-04-09 05:46:00,38.1,36.5,30.35,WSW,250,0.0,0.0,94,0.00,,,0.00,Wunderground v.1.15,2013-04-09 12:46:00,
2013-04-09 05:52:00,38.2,36.6,30.35,WSW,250,0.0,0.0,94,0.00,,,0.00,Wunderground v.1.15,2013-04-09 12:52:00,
2013-04-09 05:58:00,38.3,36.7,30.35,WSW,250,0.0,0.0,94,0.00,,,0.00,Wunderground v.1.15,2013-04-09 12:58:00,
2013-04-09 06:04:00,38.4,36.8,30.35,WSW,250,0.0,0.0,94,0.00,,,0.00,Wunderground v.1.15,2013-04-09 13:04:00,
2013-04-09 06:09:00,38.5,37.2,30.34,WSW,250,0.0,0.0,95,0.00,,,0.00,Wunderground v.1.15,2013-04-09 13:09:00,
2013-04-09 06:15:00,38.6,37.3,30.35,WSW,250,1.0,2.0,95,0.00,,,0.00,Wunderground v.1.15,2013-04-09 13:15:00,
2013-04-09 06:21:00,38.9,37.3,30.34,ESE,113,1.0,1.0,94,0.00,,,0.00,Wunderground v.1.15,2013-04-09 13:21:00,
2013-04-09 06:26:00,38.9,37.6,30.34,ESE,113,1.0,1.0,95,0.00,,,0.00,Wunderground v.1.15,2013-04-09 13:26:00,
2013-04-09 06:32:00,39.0,37.7,30.34,ESE,113,1.0,1.0,95,0.00,,,0.00,Wunderground v.1.15,2013-04-09 13:32:00,
2013-04-09 06:38:00,39.1,37.8,30.34,ESE,113,0.0,1.0,95,0.00,,,0.00,Wunderground v.1.15,2013-04-09 13:38:00,
2013-04-09 06:44:00,39.2,37.9,30.34,ESE,113,0.0,0.0,95,0.00,,,0.00,Wunderground v.1.15,2013-04-09 13:44:00,
2013-04-09 06:50:00,39.2,37.9,30.34,ESE,113,0.0,0.0,95,0.00,,,0.00,Wunderground v.1.15,2013-04-09 13:50:00,
2013-04-09 06:55:00,39.1,37.8,30.34,ESE,113,0.0,1.0,95,0.00,,,0.00,Wunderground v.1.15,2013-04-09 13:55:00,
2013-04-09 07:01:00,39.1,37.8,30.34,ESE,113,0.0,0.0,95,0.00,,,0.00,Wunderground v.1.15,2013-04-09 14:01:00,
2013-04-09 07:06:00,39.2,37.9,30.34,ESE,113,0.0,0.0,95,0.00,,,0.00,Wunderground v.1.15,2013-04-09 14:06:00,
2013-04-09 07:11:00,39.3,38.0,30.33,ESE,113,0.0,0.0,95,0.00,,,0.00,Wunderground v.1.15,2013-04-09 14:11:00,
2013-04-09 07:17:00,39.4,38.1,30.33,ESE,113,0.0,0.0,95,0.00,,,0.00,Wunderground v.1.15,2013-04-09 14:17:00,
2013-04-09 07:23:00,39.6,38.3,30.34,ESE,113,0.0,1.0,95,0.00,,,0.00,Wunderground v.1.15,2013-04-09 14:23:00,
2013-04-09 07:28:00,39.8,38.5,30.34,ESE,113,0.0,1.0,95,0.00,,,0.00,Wunderground v.1.15,2013-04-09 14:28:00,
2013-04-09 07:34:00,40.0,38.7,30.34,ESE,113,0.0,0.0,95,0.00,,,0.00,Wunderground v.1.15,2013-04-09 14:34:00,
2013-04-09 07:40:00,40.2,38.9,30.34,ESE,113,0.0,0.0,95,0.00,,,0.00,Wunderground v.1.15,2013-04-09 14:40:00,
2013-04-09 07:46:00,40.5,39.2,30.35,ESE,113,0.0,1.0,95,0.00,,,0.00,Wunderground v.1.15,2013-04-09 14:46:00,
2013-04-09 07:51:00,40.5,39.2,30.35,ESE,113,0.0,1.0,95,0.00,,,0.00,Wunderground v.1.15,2013-04-09 14:51:00,
2013-04-09 07:56:00,40.6,39.3,30.35,ESE,113,0.0,1.0,95,0.00,,,0.00,Wunderground v.1.15,2013-04-09 14:56:00,
2013-04-09 08:02:00,40.7,39.4,30.35,ESE,113,0.0,0.0,95,0.00,,,0.00,Wunderground v.1.15,2013-04-09 15:02:00,
2013-04-09 08:07:00,40.8,39.2,30.35,ESE,113,0.0,0.0,94,0.00,,,0.00,Wunderground v.1.15,2013-04-09 15:07:00,
2013-04-09 08:13:00,41.1,39.5,30.36,ESE,113,0.0,0.0,94,0.00,,,0.00,Wunderground v.1.15,2013-04-09 15:13:00,
2013-04-09 08:18:00,41.2,39.6,30.36,ESE,113,0.0,0.0,94,0.00,,,0.00,Wunderground v.1.15,2013-04-09 15:18:00,
2013-04-09 08:24:00,41.4,39.8,30.35,ESE,113,0.0,2.0,94,0.00,,,0.00,Wunderground v.1.15,2013-04-09 15:24:00,
2013-04-09 08:30:00,41.6,40.0,30.35,ESE,113,0.0,0.0,94,0.00,,,0.00,Wunderground v.1.15,2013-04-09 15:30:00,
2013-04-09 08:35:00,41.7,39.8,30.36,ESE,113,0.0,1.0,93,0.00,,,0.00,Wunderground v.1.15,2013-04-09 15:35:00,
2013-04-09 08:41:00,42.0,40.1,30.36,ESE,113,0.0,0.0,93,0.00,,,0.00,Wunderground v.1.15,2013-04-09 15:41:00,
2013-04-09 08:46:00,42.2,40.3,30.36,ESE,113,0.0,0.0,93,0.00,,,0.00,Wunderground v.1.15,2013-04-09 15:46:00,
2013-04-09 08:52:00,42.5,40.6,30.36,ESE,113,0.0,0.0,93,0.00,,,0.00,Wunderground v.1.15,2013-04-09 15:52:00,
2013-04-09 08:58:00,42.9,40.7,30.36,ESE,113,0.0,0.0,92,0.00,,,0.00,Wunderground v.1.15,2013-04-09 15:58:00,
2013-04-09 09:04:00,43.4,41.2,30.36,ESE,113,0.0,2.0,92,0.00,,,0.00,Wunderground v.1.15,2013-04-09 16:04:00,
2013-04-09 09:10:00,43.6,41.1,30.36,ESE,113,0.0,0.0,91,0.00,,,0.00,Wunderground v.1.15,2013-04-09 16:10:00,
2013-04-09 09:15:00,43.8,41.1,30.36,ESE,113,0.0,0.0,90,0.00,,,0.00,Wunderground v.1.15,2013-04-09 16:15:00,
2013-04-09 09:21:00,44.0,41.5,30.36,ESE,113,0.0,0.0,91,0.00,,,0.00,Wunderground v.1.15,2013-04-09 16:21:00,
2013-04-09 09:27:00,44.5,41.7,30.36,ESE,113,0.0,1.0,90,0.00,,,0.00,Wunderground v.1.15,2013-04-09 16:27:00,
2013-04-09 09:32:00,44.7,41.7,30.36,ESE,113,0.0,1.0,89,0.00,,,0.00,Wunderground v.1.15,2013-04-09 16:32:00,
2013-04-09 09:38:00,45.0,41.7,30.36,ESE,113,1.0,2.0,88,0.00,,,0.00,Wunderground v.1.15,2013-04-09 16:38:00,
2013-04-09 09:44:00,45.0,41.7,30.36,East,82,1.0,2.0,88,0.00,,,0.00,Wunderground v.1.15,2013-04-09 16:44:00,
2013-04-09 09:49:00,45.0,41.7,30.36,East,83,1.0,3.0,88,0.00,,,0.00,Wunderground v.1.15,2013-04-09 16:49:00,
2013-04-09 09:55:00,45.5,42.2,30.36,East,83,1.0,3.0,88,0.00,,,0.00,Wunderground v.1.15,2013-04-09 16:55:00,
2013-04-09 10:00:00,45.8,42.2,30.36,East,85,1.0,4.0,87,0.00,,,0.00,Wunderground v.1.15,2013-04-09 17:00:00,
2013-04-09 10:06:00,46.0,42.0,30.36,NE,55,2.0,4.0,86,0.00,,,0.00,Wunderground v.1.15,2013-04-09 17:06:00,
2013-04-09 10:11:00,46.2,42.2,30.36,NE,52,2.0,4.0,86,0.00,,,0.00,Wunderground v.1.15,2013-04-09 17:11:00,
2013-04-09 10:17:00,46.3,42.0,30.37,East,85,2.0,4.0,85,0.00,,,0.00,Wunderground v.1.15,2013-04-09 17:17:00,
2013-04-09 10:23:00,46.5,42.5,30.37,East,84,2.0,2.0,86,0.00,,,0.00,Wunderground v.1.15,2013-04-09 17:23:00,
2013-04-09 10:28:00,46.7,42.4,30.37,East,84,1.0,2.0,85,0.00,,,0.00,Wunderground v.1.15,2013-04-09 17:28:00,
2013-04-09 10:34:00,46.9,42.3,30.37,ENE,78,1.0,2.0,84,0.00,,,0.00,Wunderground v.1.15,2013-04-09 17:34:00,
2013-04-09 10:40:00,47.1,42.5,30.37,ENE,64,2.0,2.0,84,0.00,,,0.00,Wunderground v.1.15,2013-04-09 17:40:00,
2013-04-09 10:45:00,47.4,42.8,30.36,ENE,65,1.0,2.0,84,0.00,,,0.00,Wunderground v.1.15,2013-04-09 17:45:00,
2013-04-09 10:51:00,47.6,42.7,30.36,ESE,105,1.0,4.0,83,0.00,,,0.00,Wunderground v.1.15,2013-04-09 17:51:00,
2013-04-09 10:57:00,47.9,42.7,30.36,East,98,2.0,4.0,82,0.00,,,0.00,Wunderground v.1.15,2013-04-09 17:57:00,
2013-04-09 11:03:00,48.1,42.5,30.36,East,98,1.0,1.0,81,0.00,,,0.00,Wunderground v.1.15,2013-04-09 18:03:00,
2013-04-09 11:08:00,48.4,42.8,30.36,East,98,1.0,2.0,81,0.00,,,0.00,Wunderground v.1.15,2013-04-09 18:08:00,
2013-04-09 11:14:00,48.9,43.3,30.36,ESE,103,1.0,4.0,81,0.00,,,0.00,Wunderground v.1.15,2013-04-09 18:14:00,
2013-04-09 11:19:00,49.2,43.6,30.36,ESE,105,2.0,4.0,81,0.00,,,0.00,Wunderground v.1.15,2013-04-09 18:19:00,
2013-04-09 11:25:00,49.2,43.0,30.36,East,94,3.0,3.0,79,0.00,,,0.00,Wunderground v.1.15,2013-04-09 18:25:00,
2013-04-09 11:31:00,49.2,43.3,30.37,ESE,107,3.0,3.0,80,0.00,,,0.00,Wunderground v.1.15,2013-04-09 18:31:00,
2013-04-09 11:37:00,49.3,43.1,30.36,ENE,67,2.0,3.0,79,0.00,,,0.00,Wunderground v.1.15,2013-04-09 18:37:00,
2013-04-09 11:42:00,49.6,43.4,30.36,East,87,2.0,4.0,79,0.00,,,0.00,Wunderground v.1.15,2013-04-09 18:42:00,
2013-04-09 11:48:00,49.9,43.6,30.36,SSE,165,2.0,4.0,79,0.00,,,0.00,Wunderground v.1.15,2013-04-09 18:48:00,
2013-04-09 11:53:00,50.3,43.7,30.36,SE,128,2.0,2.0,78,0.00,,,0.00,Wunderground v.1.15,2013-04-09 18:53:00,
2013-04-09 11:58:00,50.7,43.8,30.36,ESE,110,2.0,4.0,77,0.00,,,0.00,Wunderground v.1.15,2013-04-09 18:58:00,
2013-04-09 12:04:00,51.0,43.7,30.36,SE,126,2.0,4.0,76,0.00,,,0.00,Wunderground v.1.15,2013-04-09 19:04:00,
2013-04-09 12:09:00,51.0,44.0,30.36,East,101,1.0,4.0,77,0.00,,,0.00,Wunderground v.1.15,2013-04-09 19:09:00,
2013-04-09 12:15:00,50.9,43.6,30.36,SE,130,2.0,5.0,76,0.00,,,0.00,Wunderground v.1.15,2013-04-09 19:15:00,
2013-04-09 12:21:00,50.8,43.5,30.36,ESE,105,3.0,4.0,76,0.00,,,0.00,Wunderground v.1.15,2013-04-09 19:21:00,
2013-04-09 12:27:00,51.0,43.7,30.35,ESE,105,3.0,5.0,76,0.00,,,0.00,Wunderground v.1.15,2013-04-09 19:27:00,
2013-04-09 12:32:00,51.2,44.2,30.35,East,99,3.0,3.0,77,0.00,,,0.00,Wunderground v.1.15,2013-04-09 19:32:00,
2013-04-09 12:38:00,51.2,43.5,30.35,ESE,109,4.0,6.0,75,0.00,,,0.00,Wunderground v.1.15,2013-04-09 19:38:00,
2013-04-09 12:44:00,51.2,43.2,30.35,SE,139,4.0,5.0,74,0.00,,,0.00,Wunderground v.1.15,2013-04-09 19:44:00,
2013-04-09 12:50:00,51.3,42.9,30.36,SE,132,4.0,4.0,73,0.00,,,0.00,Wunderground v.1.15,2013-04-09 19:50:00,
2013-04-09 12:56:00,51.1,43.1,30.35,East,88,4.0,6.0,74,0.00,,,0.00,Wunderground v.1.15,2013-04-09 19:56:00,
2013-04-09 13:02:00,51.2,43.2,30.35,East,82,4.0,5.0,74,0.00,,,0.00,Wunderground v.1.15,2013-04-09 20:02:00,
2013-04-09 13:08:00,51.5,43.5,30.34,ESE,120,3.0,5.0,74,0.00,,,0.00,Wunderground v.1.15,2013-04-09 20:08:00,
2013-04-09 13:14:00,51.8,43.8,30.34,East,101,3.0,5.0,74,0.00,,,0.00,Wunderground v.1.15,2013-04-09 20:14:00,
2013-04-09 13:20:00,52.2,44.2,30.34,ESE,107,3.0,5.0,74,0.00,,,0.00,Wunderground v.1.15,2013-04-09 20:20:00,
2013-04-09 13:26:00,52.7,43.9,30.34,East,86,4.0,5.0,72,0.00,,,0.00,Wunderground v.1.15,2013-04-09 20:26:00,
2013-04-09 13:31:00,52.9,44.1,30.34,East,101,3.0,5.0,72,0.00,,,0.00,Wunderground v.1.15,2013-04-09 20:31:00,
2013-04-09 13:36:00,52.8,44.0,30.34,East,91,4.0,6.0,72,0.00,,,0.00,Wunderground v.1.15,2013-04-09 20:36:00,
2013-04-09 13:41:00,53.0,44.6,30.34,East,92,3.0,5.0,73,0.00,,,0.00,Wunderground v.1.15,2013-04-09 20:41:00,
2013-04-09 13:47:00,53.4,44.6,30.34,East,92,3.0,5.0,72,0.00,,,0.00,Wunderground v.1.15,2013-04-09 20:47:00,
2013-04-09 13:52:00,53.4,43.9,30.33,SE,130,4.0,5.0,70,0.00,,,0.00,Wunderground v.1.15,2013-04-09 20:52:00,
2013-04-09 13:58:00,53.5,44.0,30.34,ESE,119,4.0,5.0,70,0.00,,,0.00,Wunderground v.1.15,2013-04-09 20:58:00,
2013-04-09 14:03:00,53.6,44.4,30.34,ESE,117,3.0,5.0,71,0.00,,,0.00,Wunderground v.1.15,2013-04-09 21:03:00,
2013-04-09 14:09:00,53.9,44.7,30.33,ESE,108,2.0,6.0,71,0.00,,,0.00,Wunderground v.1.15,2013-04-09 21:09:00,
2013-04-09 14:14:00,54.3,45.5,30.33,ESE,114,2.0,5.0,72,0.00,,,0.00,Wunderground v.1.15,2013-04-09 21:14:00,
2013-04-09 14:20:00,54.5,44.9,30.33,East,83,3.0,5.0,70,0.00,,,0.00,Wunderground v.1.15,2013-04-09 21:20:00,
2013-04-09 14:25:00,54.6,44.6,30.33,ESE,103,3.0,6.0,69,0.00,,,0.00,Wunderground v.1.15,2013-04-09 21:25:00,
2013-04-09 14:31:00,54.3,44.3,30.33,ESE,102,4.0,5.0,69,0.00,,,0.00,Wunderground v.1.15,2013-04-09 21:31:00,
2013-04-09 14:37:00,54.4,44.4,30.33,East,88,4.0,5.0,69,0.00,,,0.00,Wunderground v.1.15,2013-04-09 21:37:00,
2013-04-09 14:43:00,54.4,43.7,30.33,SE,126,3.0,5.0,67,0.00,,,0.00,Wunderground v.1.15,2013-04-09 21:43:00,
2013-04-09 14:49:00,54.6,44.2,30.33,SSE,161,3.0,5.0,68,0.00,,,0.00,Wunderground v.1.15,2013-04-09 21:49:00,
2013-04-09 14:54:00,55.0,44.6,30.33,ESE,102,2.0,5.0,68,0.00,,,0.00,Wunderground v.1.15,2013-04-09 21:54:00,
2013-04-09 15:00:00,55.5,44.7,30.33,ESE,113,2.0,6.0,67,0.00,,,0.00,Wunderground v.1.15,2013-04-09 22:00:00,
2013-04-09 15:05:00,55.3,44.9,30.33,ESE,115,3.0,5.0,68,0.00,,,0.00,Wunderground v.1.15,2013-04-09 22:05:00,
2013-04-09 15:11:00,55.0,44.2,30.33,SSE,149,4.0,5.0,67,0.00,,,0.00,Wunderground v.1.15,2013-04-09 22:11:00,
2013-04-09 15:17:00,55.1,44.3,30.32,ESE,117,4.0,5.0,67,0.00,,,0.00,Wunderground v.1.15,2013-04-09 22:17:00,
2013-04-09 15:23:00,55.3,44.9,30.33,South,171,3.0,6.0,68,0.00,,,0.00,Wunderground v.1.15,2013-04-09 22:23:00,
2013-04-09 15:29:00,55.7,44.9,30.32,East,88,3.0,6.0,67,0.00,,,0.00,Wunderground v.1.15,2013-04-09 22:29:00,
2013-04-09 15:35:00,55.6,44.4,30.32,ESE,107,2.0,5.0,66,0.00,,,0.00,Wunderground v.1.15,2013-04-09 22:35:00,
2013-04-09 15:41:00,55.4,44.6,30.32,East,94,2.0,6.0,67,0.00,,,0.00,Wunderground v.1.15,2013-04-09 22:41:00,
2013-04-09 15:46:00,55.2,44.8,30.32,SE,133,2.0,6.0,68,0.00,,,0.00,Wunderground v.1.15,2013-04-09 22:46:00,
2013-04-09 15:51:00,55.2,45.6,30.32,East,98,2.0,7.0,70,0.00,,,0.00,Wunderground v.1.15,2013-04-09 22:51:00,
2013-04-09 15:57:00,55.0,45.0,30.32,East,79,3.0,7.0,69,0.00,,,0.00,Wunderground v.1.15,2013-04-09 22:57:00,
2013-04-09 16:02:00,55.0,45.4,30.31,SE,131,3.0,5.0,70,0.00,,,0.00,Wunderground v.1.15,2013-04-09 23:02:00,
2013-04-09 16:08:00,55.0,44.6,30.32,ESE,111,3.0,5.0,68,0.00,,,0.00,Wunderground v.1.15,2013-04-09 23:08:00,
2013-04-09 16:14:00,55.0,44.6,30.32,ESE,122,3.0,5.0,68,0.00,,,0.00,Wunderground v.1.15,2013-04-09 23:14:00,
2013-04-09 16:19:00,55.1,45.1,30.31,SSE,155,3.0,5.0,69,0.00,,,0.00,Wunderground v.1.15,2013-04-09 23:19:00,
2013-04-09 16:25:00,55.5,45.5,30.31,SSE,162,2.0,5.0,69,0.00,,,0.00,Wunderground v.1.15,2013-04-09 23:25:00,
2013-04-09 16:30:00,55.5,45.1,30.31,SE,136,2.0,5.0,68,0.00,,,0.00,Wunderground v.1.15,2013-04-09 23:30:00,
2013-04-09 16:36:00,55.5,45.1,30.31,SE,140,2.0,5.0,68,0.00,,,0.00,Wunderground v.1.15,2013-04-09 23:36:00,
2013-04-09 16:42:00,55.2,45.2,30.31,ESE,108,2.0,5.0,69,0.00,,,0.00,Wunderground v.1.15,2013-04-09 23:42:00,
2013-04-09 16:48:00,54.9,44.5,30.30,SE,138,3.0,5.0,68,0.00,,,0.00,Wunderground v.1.15,2013-04-09 23:48:00,
2013-04-09 16:53:00,54.7,44.7,30.30,ESE,110,3.0,5.0,69,0.00,,,0.00,Wunderground v.1.15,2013-04-09 23:53:00,
2013-04-09 16:58:00,54.7,45.1,30.30,SSE,161,2.0,5.0,70,0.00,,,0.00,Wunderground v.1.15,2013-04-09 23:58:00,
2013-04-09 17:04:00,54.6,45.0,30.30,SE,135,2.0,5.0,70,0.00,,,0.00,Wunderground v.1.15,2013-04-10 00:04:00,
2013-04-09 17:09:00,54.8,44.4,30.30,SSE,151,2.0,5.0,68,0.00,,,0.00,Wunderground v.1.15,2013-04-10 00:09:00,
2013-04-09 17:15:00,54.9,44.5,30.31,SSE,162,1.0,5.0,68,0.00,,,0.00,Wunderground v.1.15,2013-04-10 00:15:00,
2013-04-09 17:20:00,54.9,44.9,30.31,SSE,162,1.0,1.0,69,0.00,,,0.00,Wunderground v.1.15,2013-04-10 00:20:00,
2013-04-09 17:26:00,55.0,44.6,30.30,SE,131,1.0,5.0,68,0.00,,,0.00,Wunderground v.1.15,2013-04-10 00:26:00,
2013-04-09 17:32:00,54.8,44.4,30.30,ESE,123,1.0,5.0,68,0.00,,,0.00,Wunderground v.1.15,2013-04-10 00:32:00,
2013-04-09 17:38:00,54.7,44.3,30.30,South,178,2.0,5.0,68,0.00,,,0.00,Wunderground v.1.15,2013-04-10 00:38:00,
2013-04-09 17:43:00,54.8,44.8,30.30,SSE,150,2.0,5.0,69,0.00,,,0.00,Wunderground v.1.15,2013-04-10 00:43:00,
2013-04-09 17:49:00,55.0,45.0,30.30,SE,145,1.0,5.0,69,0.00,,,0.00,Wunderground v.1.15,2013-04-10 00:49:00,
2013-04-09 17:54:00,55.0,44.6,30.30,SSE,164,1.0,5.0,68,0.00,,,0.00,Wunderground v.1.15,2013-04-10 00:54:00,
2013-04-09 18:00:00,55.0,45.0,30.30,SSE,164,1.0,1.0,69,0.00,,,0.00,Wunderground v.1.15,2013-04-10 01:00:00,
2013-04-09 18:05:00,55.0,45.0,30.30,SSE,164,0.0,5.0,69,0.00,,,0.00,Wunderground v.1.15,2013-04-10 01:05:00,
2013-04-09 18:11:00,55.0,45.0,30.29,SE,140,0.0,3.0,69,0.00,,,0.00,Wunderground v.1.15,2013-04-10 01:11:00,
2013-04-09 18:16:00,54.9,45.3,30.29,SSE,150,1.0,3.0,70,0.00,,,0.00,Wunderground v.1.15,2013-04-10 01:16:00,
2013-04-09 18:22:00,54.7,45.1,30.29,SSE,148,1.0,2.0,70,0.00,,,0.00,Wunderground v.1.15,2013-04-10 01:22:00,
2013-04-09 18:28:00,54.6,45.0,30.28,SSE,148,1.0,3.0,70,0.00,,,0.00,Wunderground v.1.15,2013-04-10 01:28:00,
2013-04-09 18:33:00,54.5,44.9,30.28,SSE,148,0.0,2.0,70,0.00,,,0.00,Wunderground v.1.15,2013-04-10 01:33:00,
2013-04-09 18:39:00,54.4,44.8,30.28,SSE,154,1.0,5.0,70,0.00,,,0.00,Wunderground v.1.15,2013-04-10 01:39:00,
2013-04-09 18:44:00,54.4,44.8,30.28,SSE,167,1.0,3.0,70,0.00,,,0.00,Wunderground v.1.15,2013-04-10 01:44:00,
2013-04-09 18:50:00,54.5,44.9,30.28,SSE,165,2.0,2.0,70,0.00,,,0.00,Wunderground v.1.15,2013-04-10 01:50:00,
2013-04-09 18:56:00,54.5,44.9,30.28,SSE,156,1.0,3.0,70,0.00,,,0.00,Wunderground v.1.15,2013-04-10 01:56:00,
2013-04-09 19:01:00,54.5,44.9,30.28,NE,44,1.0,6.0,70,0.00,,,0.00,Wunderground v.1.15,2013-04-10 02:01:00,
2013-04-09 19:06:00,54.5,44.9,30.28,ESE,117,1.0,6.0,70,0.00,,,0.00,Wunderground v.1.15,2013-04-10 02:06:00,
2013-04-09 19:12:00,54.4,44.8,30.28,SSE,155,1.0,6.0,70,0.00,,,0.00,Wunderground v.1.15,2013-04-10 02:12:00,
2013-04-09 19:18:00,54.4,44.4,30.28,SSE,150,1.0,6.0,69,0.00,,,0.00,Wunderground v.1.15,2013-04-10 02:18:00,
2013-04-09 19:24:00,54.3,44.7,30.28,SSE,163,0.0,6.0,70,0.00,,,0.00,Wunderground v.1.15,2013-04-10 02:24:00,
2013-04-09 19:29:00,54.2,44.6,30.27,SSE,161,1.0,6.0,70,0.00,,,0.00,Wunderground v.1.15,2013-04-10 02:29:00,
2013-04-09 19:35:00,54.1,44.5,30.27,SE,141,1.0,6.0,70,0.00,,,0.00,Wunderground v.1.15,2013-04-10 02:35:00,
2013-04-09 19:40:00,54.0,45.2,30.26,South,182,1.0,1.0,72,0.00,,,0.00,Wunderground v.1.15,2013-04-10 02:40:00,
2013-04-09 19:46:00,53.9,44.7,30.26,South,181,1.0,6.0,71,0.00,,,0.00,Wunderground v.1.15,2013-04-10 02:46:00,
2013-04-09 19:51:00,53.8,44.6,30.27,SE,140,1.0,6.0,71,0.00,,,0.00,Wunderground v.1.15,2013-04-10 02:51:00,
2013-04-09 19:57:00,53.7,44.5,30.27,ESE,121,1.0,6.0,71,0.00,,,0.00,Wunderground v.1.15,2013-04-10 02:57:00,
2013-04-09 20:03:00,53.6,44.8,30.27,SE,134,1.0,6.0,72,0.00,,,0.00,Wunderground v.1.15,2013-04-10 03:03:00,
2013-04-09 20:09:00,53.5,44.7,30.26,SSE,159,1.0,6.0,72,0.00,,,0.00,Wunderground v.1.15,2013-04-10 03:09:00,
2013-04-09 20:14:00,53.4,44.6,30.27,SE,146,1.0,6.0,72,0.00,,,0.00,Wunderground v.1.15,2013-04-10 03:14:00,
2013-04-09 20:19:00,53.3,44.5,30.27,South,183,1.0,6.0,72,0.00,,,0.00,Wunderground v.1.15,2013-04-10 03:19:00,
2013-04-09 20:25:00,53.3,44.5,30.27,South,183,1.0,6.0,72,0.00,,,0.00,Wunderground v.1.15,2013-04-10 03:25:00,
2013-04-09 20:30:00,53.2,44.4,30.27,SSE,159,1.0,1.0,72,0.00,,,0.00,Wunderground v.1.15,2013-04-10 03:30:00,
2013-04-09 20:36:00,53.2,44.4,30.28,SSE,160,1.0,6.0,72,0.00,,,0.00,Wunderground v.1.15,2013-04-10 03:36:00,
2013-04-09 20:42:00,53.1,44.3,30.28,South,175,1.0,6.0,72,0.00,,,0.00,Wunderground v.1.15,2013-04-10 03:42:00,
2013-04-09 20:47:00,53.1,44.3,30.28,South,175,1.0,6.0,72,0.00,,,0.00,Wunderground v.1.15,2013-04-10 03:47:00,
2013-04-09 20:53:00,53.0,44.6,30.27,South,175,0.0,6.0,73,0.00,,,0.00,Wunderground v.1.15,2013-04-10 03:53:00,
2013-04-09 20:59:00,53.0,44.6,30.28,South,175,0.0,6.0,73,0.00,,,0.00,Wunderground v.1.15,2013-04-10 03:59:00,
2013-04-09 21:00:00,53.0,44.9,30.28,South,175,0.0,6.0,74,0.00,,,0.00,Wunderground v.1.15,2013-04-10 04:00:00,
2013-04-09 21:01:00,53.0,44.9,30.28,South,175,0.0,6.0,74,0.00,,,0.00,Wunderground v.1.15,2013-04-10 04:01:00,
2013-04-09 21:03:00,53.0,44.9,30.28,South,175,1.0,6.0,74,0.00,,,0.00,Wunderground v.1.15,2013-04-10 04:03:00,
2013-04-09 21:04:00,52.9,44.8,30.28,South,175,0.0,6.0,74,0.00,,,0.00,Wunderground v.1.15,2013-04-10 04:04:00,
2013-04-09 21:10:00,52.9,45.2,30.27,South,178,1.0,1.0,75,0.00,,,0.00,Wunderground v.1.15,2013-04-10 04:10:00,
2013-04-09 21:15:00,52.8,45.4,30.28,South,178,0.0,6.0,76,0.00,,,0.00,Wunderground v.1.15,2013-04-10 04:15:00,
2013-04-09 21:21:00,52.7,45.7,30.27,South,178,0.0,6.0,77,0.00,,,0.00,Wunderground v.1.15,2013-04-10 04:21:00,
2013-04-09 21:26:00,52.5,45.5,30.27,South,178,0.0,6.0,77,0.00,,,0.00,Wunderground v.1.15,2013-04-10 04:26:00,
2013-04-09 21:32:00,52.4,45.7,30.27,South,178,0.0,6.0,78,0.00,,,0.00,Wunderground v.1.15,2013-04-10 04:32:00,
2013-04-09 21:38:00,52.3,45.3,30.27,South,178,0.0,6.0,77,0.00,,,0.00,Wunderground v.1.15,2013-04-10 04:38:00,
2013-04-09 21:44:00,52.2,45.9,30.27,South,178,0.0,6.0,79,0.00,,,0.00,Wunderground v.1.15,2013-04-10 04:44:00,
2013-04-09 21:50:00,52.1,45.4,30.27,South,178,0.0,6.0,78,0.00,,,0.00,Wunderground v.1.15,2013-04-10 04:50:00,
2013-04-09 21:56:00,52.1,45.8,30.27,South,178,0.0,6.0,79,0.00,,,0.00,Wunderground v.1.15,2013-04-10 04:56:00,
2013-04-09 22:02:00,51.9,45.9,30.27,South,178,0.0,6.0,80,0.00,,,0.00,Wunderground v.1.15,2013-04-10 05:02:00,
2013-04-09 22:08:00,51.9,45.3,30.27,South,178,0.0,6.0,78,0.00,,,0.00,Wunderground v.1.15,2013-04-10 05:08:00,
2013-04-09 22:13:00,51.8,44.5,30.27,SSE,168,1.0,6.0,76,0.00,,,0.00,Wunderground v.1.15,2013-04-10 05:13:00,
2013-04-09 22:19:00,51.8,44.5,30.26,SSE,168,1.0,6.0,76,0.00,,,0.00,Wunderground v.1.15,2013-04-10 05:19:00,
2013-04-09 22:24:00,51.9,44.2,30.26,SSE,168,0.0,6.0,75,0.00,,,0.00,Wunderground v.1.15,2013-04-10 05:24:00,
2013-04-09 22:30:00,52.0,44.0,30.25,SSE,165,1.0,1.0,74,0.00,,,0.00,Wunderground v.1.15,2013-04-10 05:30:00,
2013-04-09 22:35:00,52.1,44.1,30.25,SSE,155,1.0,6.0,74,0.00,,,0.00,Wunderground v.1.15,2013-04-10 05:35:00,
2013-04-09 22:41:00,52.2,44.5,30.25,SSE,156,1.0,6.0,75,0.00,,,0.00,Wunderground v.1.15,2013-04-10 05:41:00,